JBU6818 KJFK-KBOS
Flight info
| Callsign | JBU6818 |
|---|---|
| Flight time | 0h 47m |
| Altitude | 21000 |
| Route | MERIT ROBUC3 |
| Aircraft | A320/M-SDE3FGHIRWY/LB1 |
Departure
| Time | 2026-05-03 22:59 |
|---|---|
| Airport | John F. Kennedy International Airport (KJFK) |
Arrival
| Time | 2026-05-03 23:47 |
|---|---|
| Airport | Boston Logan International Airport (KBOS) |
| Time | Latitude | Longitude | Altitude | Speed | Heading |
|---|---|---|---|---|---|
| 2026-05-03 22:18 | 40.64923 | -73.78438 | 27 ft | 0 kts | 76° |
| 2026-05-03 22:21 | 40.64921 | -73.78444 | 28 ft | 0 kts | 76° |
| 2026-05-03 22:42 | 40.64920 | -73.78447 | 28 ft | 2 kts | 76° |
| 2026-05-03 22:42 | 40.64915 | -73.78480 | 23 ft | 4 kts | 66° |
| 2026-05-03 22:42 | 40.64918 | -73.78486 | 23 ft | 4 kts | 17° |
| 2026-05-03 22:43 | 40.64941 | -73.78493 | 24 ft | 4 kts | 350° |
| 2026-05-03 22:43 | 40.64964 | -73.78494 | 23 ft | 4 kts | 359° |
| 2026-05-03 22:43 | 40.64991 | -73.78493 | 23 ft | 4 kts | 4° |
| 2026-05-03 22:43 | 40.65012 | -73.78490 | 23 ft | 4 kts | 6° |
| 2026-05-03 22:44 | 40.65039 | -73.78486 | 23 ft | 4 kts | 7° |
| 2026-05-03 22:44 | 40.65065 | -73.78481 | 23 ft | 2 kts | 10° |
| 2026-05-03 22:44 | 40.65086 | -73.78475 | 23 ft | 4 kts | 13° |
| 2026-05-03 22:44 | 40.65098 | -73.78471 | 23 ft | 0 kts | 13° |
| 2026-05-03 22:47 | 40.65100 | -73.78472 | 23 ft | 3 kts | 7° |
| 2026-05-03 22:48 | 40.65145 | -73.78452 | 23 ft | 9 kts | 20° |
| 2026-05-03 22:48 | 40.65214 | -73.78418 | 23 ft | 12 kts | 20° |
| 2026-05-03 22:48 | 40.65248 | -73.78335 | 27 ft | 11 kts | 113° |
| 2026-05-03 22:48 | 40.65231 | -73.78295 | 27 ft | 5 kts | 124° |
| 2026-05-03 22:49 | 40.65207 | -73.78248 | 27 ft | 8 kts | 120° |
| 2026-05-03 22:49 | 40.65169 | -73.78162 | 24 ft | 13 kts | 120° |
| 2026-05-03 22:49 | 40.65151 | -73.78121 | 23 ft | 0 kts | 120° |
| 2026-05-03 22:49 | 40.65147 | -73.78110 | 23 ft | 3 kts | 120° |
| 2026-05-03 22:50 | 40.65129 | -73.78070 | 23 ft | 7 kts | 120° |
| 2026-05-03 22:50 | 40.65099 | -73.78001 | 23 ft | 10 kts | 120° |
| 2026-05-03 22:50 | 40.65055 | -73.77900 | 21 ft | 15 kts | 120° |
| 2026-05-03 22:50 | 40.64993 | -73.77758 | 19 ft | 19 kts | 120° |
| 2026-05-03 22:51 | 40.64928 | -73.77624 | 21 ft | 12 kts | 122° |
| 2026-05-03 22:51 | 40.64892 | -73.77526 | 20 ft | 0 kts | 88° |
| 2026-05-03 22:51 | 40.64888 | -73.77515 | 20 ft | 1 kts | 130° |
| 2026-05-03 22:51 | 40.64876 | -73.77500 | 20 ft | 4 kts | 136° |
| 2026-05-03 22:52 | 40.64846 | -73.77453 | 23 ft | 10 kts | 124° |
| 2026-05-03 22:52 | 40.64802 | -73.77350 | 24 ft | 16 kts | 117° |
| 2026-05-03 22:52 | 40.64732 | -73.77192 | 22 ft | 24 kts | 121° |
| 2026-05-03 22:52 | 40.64690 | -73.77121 | 23 ft | 10 kts | 139° |
| 2026-05-03 22:53 | 40.64619 | -73.77083 | 22 ft | 13 kts | 172° |
| 2026-05-03 22:53 | 40.64514 | -73.77088 | 21 ft | 17 kts | 183° |
| 2026-05-03 22:53 | 40.64402 | -73.77119 | 22 ft | 17 kts | 208° |
| 2026-05-03 22:53 | 40.64288 | -73.77208 | 23 ft | 20 kts | 211° |
| 2026-05-03 22:54 | 40.64164 | -73.77307 | 25 ft | 22 kts | 211° |
| 2026-05-03 22:54 | 40.64021 | -73.77423 | 22 ft | 26 kts | 211° |
| 2026-05-03 22:54 | 40.63858 | -73.77554 | 20 ft | 29 kts | 211° |
| 2026-05-03 22:54 | 40.63677 | -73.77697 | 20 ft | 31 kts | 211° |
| 2026-05-03 22:55 | 40.63510 | -73.77828 | 23 ft | 18 kts | 210° |
| 2026-05-03 22:55 | 40.63438 | -73.77886 | 25 ft | 5 kts | 213° |
| 2026-05-03 22:55 | 40.63398 | -73.77916 | 24 ft | 8 kts | 202° |
| 2026-05-03 22:55 | 40.63349 | -73.77894 | 25 ft | 8 kts | 112° |
| 2026-05-03 22:56 | 40.63324 | -73.77822 | 27 ft | 9 kts | 114° |
| 2026-05-03 22:56 | 40.63286 | -73.77741 | 27 ft | 12 kts | 124° |
| 2026-05-03 22:56 | 40.63232 | -73.77635 | 28 ft | 15 kts | 123° |
| 2026-05-03 22:56 | 40.63175 | -73.77512 | 30 ft | 17 kts | 120° |
| 2026-05-03 22:57 | 40.63111 | -73.77359 | 28 ft | 21 kts | 118° |
| 2026-05-03 22:57 | 40.63040 | -73.77206 | 27 ft | 13 kts | 125° |
| 2026-05-03 22:57 | 40.63031 | -73.77188 | 26 ft | 2 kts | 125° |
| 2026-05-03 22:57 | 40.63005 | -73.77166 | 31 ft | 6 kts | 181° |
| 2026-05-03 22:58 | 40.62961 | -73.77207 | 26 ft | 9 kts | 216° |
| 2026-05-03 22:58 | 40.62892 | -73.77258 | 26 ft | 14 kts | 212° |
| 2026-05-03 22:58 | 40.62888 | -73.77382 | 27 ft | 15 kts | 301° |
| 2026-05-03 22:58 | 40.62987 | -73.77618 | 29 ft | 60 kts | 300° |
| 2026-05-03 22:59 | 40.63328 | -73.78341 | 23 ft | 122 kts | 300° |
| 2026-05-03 22:59 | 40.63841 | -73.79477 | 108 ft | 158 kts | 301° |
| 2026-05-03 22:59 | 40.64411 | -73.80690 | 706 ft | 156 kts | 301° |
| 2026-05-03 22:59 | 40.64973 | -73.81927 | 1308 ft | 159 kts | 301° |
| 2026-05-03 23:00 | 40.65567 | -73.83243 | 1632 ft | 178 kts | 301° |
| 2026-05-03 23:00 | 40.66331 | -73.84663 | 1883 ft | 202 kts | 309° |
| 2026-05-03 23:00 | 40.67365 | -73.86072 | 2200 ft | 226 kts | 319° |
| 2026-05-03 23:00 | 40.68525 | -73.87585 | 2789 ft | 241 kts | 304° |
| 2026-05-03 23:01 | 40.69256 | -73.89609 | 3538 ft | 251 kts | 287° |
| 2026-05-03 23:01 | 40.69554 | -73.91907 | 4366 ft | 258 kts | 275° |
| 2026-05-03 23:01 | 40.69601 | -73.94283 | 5258 ft | 262 kts | 261° |
| 2026-05-03 23:01 | 40.68920 | -73.96505 | 6099 ft | 266 kts | 232° |
| 2026-05-03 23:02 | 40.67517 | -73.98099 | 6712 ft | 271 kts | 207° |
| 2026-05-03 23:02 | 40.65713 | -73.98704 | 6951 ft | 270 kts | 179° |
| 2026-05-03 23:02 | 40.63887 | -73.98306 | 7055 ft | 270 kts | 160° |
| 2026-05-03 23:02 | 40.62317 | -73.97006 | 7081 ft | 269 kts | 132° |
| 2026-05-03 23:03 | 40.61367 | -73.94895 | 7085 ft | 269 kts | 110° |
| 2026-05-03 23:03 | 40.60753 | -73.92567 | 7084 ft | 270 kts | 108° |
| 2026-05-03 23:03 | 40.60179 | -73.90212 | 7084 ft | 270 kts | 107° |
| 2026-05-03 23:03 | 40.59611 | -73.87858 | 7083 ft | 270 kts | 107° |
| 2026-05-03 23:04 | 40.59044 | -73.85501 | 7083 ft | 270 kts | 107° |
| 2026-05-03 23:04 | 40.58478 | -73.83143 | 7083 ft | 270 kts | 107° |
| 2026-05-03 23:04 | 40.57912 | -73.80782 | 7083 ft | 270 kts | 107° |
| 2026-05-03 23:04 | 40.57537 | -73.78380 | 7081 ft | 270 kts | 89° |
| 2026-05-03 23:05 | 40.57993 | -73.76018 | 7083 ft | 269 kts | 60° |
| 2026-05-03 23:05 | 40.59120 | -73.74055 | 7085 ft | 270 kts | 49° |
| 2026-05-03 23:05 | 40.60380 | -73.72210 | 7084 ft | 270 kts | 47° |
| 2026-05-03 23:05 | 40.61646 | -73.70390 | 7083 ft | 270 kts | 47° |
| 2026-05-03 23:06 | 40.62918 | -73.68567 | 7083 ft | 270 kts | 47° |
| 2026-05-03 23:06 | 40.64190 | -73.66745 | 7135 ft | 267 kts | 47° |
| 2026-05-03 23:06 | 40.65393 | -73.65022 | 8280 ft | 245 kts | 47° |
| 2026-05-03 23:06 | 40.66510 | -73.63424 | 9447 ft | 233 kts | 47° |
| 2026-05-03 23:07 | 40.67635 | -73.61885 | 10245 ft | 234 kts | 38° |
| 2026-05-03 23:07 | 40.69045 | -73.60780 | 10829 ft | 244 kts | 27° |
| 2026-05-03 23:07 | 40.70607 | -73.59722 | 11131 ft | 267 kts | 27° |
| 2026-05-03 23:07 | 40.72328 | -73.58566 | 11437 ft | 288 kts | 27° |
| 2026-05-03 23:08 | 40.74175 | -73.57328 | 11943 ft | 300 kts | 27° |
| 2026-05-03 23:08 | 40.76044 | -73.56075 | 12443 ft | 311 kts | 27° |
| 2026-05-03 23:08 | 40.78001 | -73.54757 | 12943 ft | 322 kts | 27° |
| 2026-05-03 23:08 | 40.80059 | -73.53369 | 13176 ft | 341 kts | 27° |
| 2026-05-03 23:09 | 40.82190 | -73.51929 | 13733 ft | 347 kts | 27° |
| 2026-05-03 23:09 | 40.84356 | -73.50464 | 14364 ft | 351 kts | 27° |
| 2026-05-03 23:09 | 40.86536 | -73.48988 | 14983 ft | 354 kts | 27° |
| 2026-05-03 23:09 | 40.88738 | -73.47498 | 15589 ft | 357 kts | 27° |
| 2026-05-03 23:10 | 40.90960 | -73.45998 | 16170 ft | 361 kts | 27° |
| 2026-05-03 23:10 | 40.93209 | -73.44479 | 16760 ft | 364 kts | 27° |
| 2026-05-03 23:10 | 40.95471 | -73.42947 | 17343 ft | 367 kts | 27° |
| 2026-05-03 23:10 | 40.97751 | -73.41398 | 17917 ft | 370 kts | 27° |
| 2026-05-03 23:11 | 41.00052 | -73.39835 | 18504 ft | 373 kts | 27° |
| 2026-05-03 23:11 | 41.02375 | -73.38258 | 19083 ft | 376 kts | 27° |
| 2026-05-03 23:11 | 41.04690 | -73.36688 | 19657 ft | 379 kts | 27° |
| 2026-05-03 23:11 | 41.07051 | -73.35084 | 20233 ft | 383 kts | 27° |
| 2026-05-03 23:12 | 41.09425 | -73.33467 | 20772 ft | 386 kts | 27° |
| 2026-05-03 23:12 | 41.11818 | -73.31832 | 20963 ft | 387 kts | 27° |
| 2026-05-03 23:12 | 41.14246 | -73.30170 | 21010 ft | 401 kts | 27° |
| 2026-05-03 23:12 | 41.16745 | -73.28458 | 21009 ft | 406 kts | 27° |
| 2026-05-03 23:13 | 41.19266 | -73.26736 | 21011 ft | 408 kts | 27° |
| 2026-05-03 23:13 | 41.21793 | -73.25013 | 21009 ft | 408 kts | 27° |
| 2026-05-03 23:13 | 41.24320 | -73.23285 | 21009 ft | 409 kts | 27° |
| 2026-05-03 23:13 | 41.26846 | -73.21551 | 21009 ft | 409 kts | 27° |
| 2026-05-03 23:14 | 41.29377 | -73.19810 | 21009 ft | 409 kts | 27° |
| 2026-05-03 23:14 | 41.31901 | -73.18063 | 21008 ft | 409 kts | 29° |
| 2026-05-03 23:14 | 41.34245 | -73.15929 | 21008 ft | 409 kts | 40° |
| 2026-05-03 23:14 | 41.36226 | -73.13224 | 21013 ft | 408 kts | 52° |
| 2026-05-03 23:15 | 41.37771 | -73.10065 | 21007 ft | 408 kts | 63° |
| 2026-05-03 23:15 | 41.38831 | -73.06566 | 21005 ft | 408 kts | 74° |
| 2026-05-03 23:15 | 41.39381 | -73.02862 | 21006 ft | 408 kts | 82° |
| 2026-05-03 23:15 | 41.39783 | -72.99124 | 21004 ft | 408 kts | 82° |
| 2026-05-03 23:16 | 41.40186 | -72.95382 | 21003 ft | 408 kts | 82° |
| 2026-05-03 23:16 | 41.40588 | -72.91643 | 21004 ft | 408 kts | 82° |
| 2026-05-03 23:16 | 41.40989 | -72.87887 | 21005 ft | 408 kts | 82° |
| 2026-05-03 23:16 | 41.41387 | -72.84142 | 21010 ft | 408 kts | 82° |
| 2026-05-03 23:17 | 41.41650 | -72.81664 | 21009 ft | 408 kts | 82° |
| 2026-05-03 23:17 | 41.42051 | -72.77914 | 21009 ft | 408 kts | 82° |
| 2026-05-03 23:17 | 41.42578 | -72.72952 | 21008 ft | 408 kts | 82° |
| 2026-05-03 23:17 | 41.42972 | -72.69206 | 21007 ft | 408 kts | 82° |
| 2026-05-03 23:18 | 41.43237 | -72.66674 | 21006 ft | 408 kts | 82° |
| 2026-05-03 23:18 | 41.43752 | -72.61716 | 21005 ft | 408 kts | 82° |
| 2026-05-03 23:18 | 41.44014 | -72.59179 | 21004 ft | 408 kts | 82° |
| 2026-05-03 23:18 | 41.44399 | -72.55477 | 21003 ft | 408 kts | 82° |
| 2026-05-03 23:19 | 41.44785 | -72.51751 | 21002 ft | 408 kts | 82° |
| 2026-05-03 23:19 | 41.45175 | -72.47975 | 21003 ft | 408 kts | 82° |
| 2026-05-03 23:19 | 41.45562 | -72.44233 | 21004 ft | 408 kts | 82° |
| 2026-05-03 23:19 | 41.45949 | -72.40477 | 21004 ft | 408 kts | 82° |
| 2026-05-03 23:20 | 41.46334 | -72.36725 | 21002 ft | 408 kts | 82° |
| 2026-05-03 23:20 | 41.46715 | -72.32982 | 21000 ft | 408 kts | 82° |
| 2026-05-03 23:20 | 41.47090 | -72.29240 | 21000 ft | 408 kts | 82° |
| 2026-05-03 23:20 | 41.47469 | -72.25484 | 21000 ft | 408 kts | 82° |
| 2026-05-03 23:21 | 41.47993 | -72.21775 | 20997 ft | 408 kts | 75° |
| 2026-05-03 23:21 | 41.48942 | -72.18213 | 20997 ft | 408 kts | 65° |
| 2026-05-03 23:21 | 41.50182 | -72.14812 | 20999 ft | 408 kts | 64° |
| 2026-05-03 23:21 | 41.51432 | -72.11416 | 21003 ft | 408 kts | 64° |
| 2026-05-03 23:22 | 41.53928 | -72.04603 | 21007 ft | 408 kts | 64° |
| 2026-05-03 23:22 | 41.55169 | -72.01196 | 21008 ft | 408 kts | 64° |
| 2026-05-03 23:22 | 41.56367 | -71.97770 | 21004 ft | 408 kts | 66° |
| 2026-05-03 23:23 | 41.57468 | -71.94284 | 21003 ft | 408 kts | 68° |
| 2026-05-03 23:23 | 41.58506 | -71.90752 | 21002 ft | 408 kts | 69° |
| 2026-05-03 23:23 | 41.59514 | -71.87212 | 21002 ft | 408 kts | 69° |
| 2026-05-03 23:23 | 41.60524 | -71.83675 | 21002 ft | 408 kts | 69° |
| 2026-05-03 23:24 | 41.61543 | -71.80130 | 21000 ft | 408 kts | 69° |
| 2026-05-03 23:24 | 41.62540 | -71.76700 | 20695 ft | 398 kts | 69° |
| 2026-05-03 23:24 | 41.63547 | -71.73270 | 20188 ft | 393 kts | 68° |
| 2026-05-03 23:24 | 41.64546 | -71.69879 | 19674 ft | 390 kts | 68° |
| 2026-05-03 23:25 | 41.65536 | -71.66525 | 19333 ft | 383 kts | 68° |
| 2026-05-03 23:25 | 41.66492 | -71.63277 | 19207 ft | 369 kts | 68° |
| 2026-05-03 23:25 | 41.67417 | -71.60143 | 19072 ft | 356 kts | 68° |
| 2026-05-03 23:25 | 41.68305 | -71.57121 | 18945 ft | 343 kts | 69° |
| 2026-05-03 23:26 | 41.69166 | -71.54181 | 18626 ft | 337 kts | 69° |
| 2026-05-03 23:26 | 41.70018 | -71.51260 | 18205 ft | 335 kts | 69° |
| 2026-05-03 23:26 | 41.70862 | -71.48367 | 17793 ft | 333 kts | 69° |
| 2026-05-03 23:26 | 41.71702 | -71.45478 | 17379 ft | 331 kts | 69° |
| 2026-05-03 23:27 | 41.72600 | -71.42654 | 16969 ft | 329 kts | 62° |
| 2026-05-03 23:27 | 41.73728 | -71.40000 | 16560 ft | 327 kts | 60° |
| 2026-05-03 23:27 | 41.74862 | -71.37361 | 16148 ft | 325 kts | 60° |
| 2026-05-03 23:27 | 41.75985 | -71.34742 | 15745 ft | 323 kts | 60° |
| 2026-05-03 23:28 | 41.77099 | -71.32142 | 15349 ft | 321 kts | 60° |
| 2026-05-03 23:28 | 41.78210 | -71.29549 | 14942 ft | 319 kts | 60° |
| 2026-05-03 23:28 | 41.79311 | -71.26970 | 14492 ft | 319 kts | 60° |
| 2026-05-03 23:28 | 41.80402 | -71.24403 | 14116 ft | 316 kts | 60° |
| 2026-05-03 23:29 | 41.81483 | -71.21854 | 13849 ft | 310 kts | 60° |
| 2026-05-03 23:29 | 41.82535 | -71.19376 | 13626 ft | 303 kts | 60° |
| 2026-05-03 23:29 | 41.83558 | -71.16958 | 13295 ft | 301 kts | 60° |
| 2026-05-03 23:29 | 41.84589 | -71.14528 | 12950 ft | 299 kts | 60° |
| 2026-05-03 23:30 | 41.85618 | -71.12110 | 12601 ft | 297 kts | 60° |
| 2026-05-03 23:30 | 41.86646 | -71.09715 | 12249 ft | 296 kts | 60° |
| 2026-05-03 23:30 | 41.87674 | -71.07332 | 11922 ft | 294 kts | 60° |
| 2026-05-03 23:30 | 41.88691 | -71.04989 | 11746 ft | 289 kts | 59° |
| 2026-05-03 23:31 | 41.89703 | -71.02659 | 11615 ft | 288 kts | 60° |
| 2026-05-03 23:31 | 41.90710 | -71.00336 | 11492 ft | 288 kts | 60° |
| 2026-05-03 23:31 | 41.91712 | -70.98016 | 11354 ft | 287 kts | 60° |
| 2026-05-03 23:31 | 41.92713 | -70.95695 | 11230 ft | 287 kts | 60° |
| 2026-05-03 23:32 | 41.93709 | -70.93377 | 11100 ft | 286 kts | 60° |
| 2026-05-03 23:32 | 41.94701 | -70.91064 | 10968 ft | 286 kts | 60° |
| 2026-05-03 23:32 | 41.95692 | -70.88756 | 10850 ft | 285 kts | 60° |
| 2026-05-03 23:32 | 41.96684 | -70.86450 | 10714 ft | 285 kts | 60° |
| 2026-05-03 23:33 | 41.97675 | -70.84150 | 10591 ft | 284 kts | 60° |
| 2026-05-03 23:33 | 41.98662 | -70.81851 | 10461 ft | 284 kts | 60° |
| 2026-05-03 23:33 | 41.99629 | -70.79587 | 10334 ft | 283 kts | 60° |
| 2026-05-03 23:33 | 42.00609 | -70.77302 | 10206 ft | 282 kts | 59° |
| 2026-05-03 23:34 | 42.01780 | -70.75183 | 10017 ft | 283 kts | 48° |
| 2026-05-03 23:34 | 42.03090 | -70.73226 | 9731 ft | 280 kts | 48° |
| 2026-05-03 23:34 | 42.04391 | -70.71285 | 9463 ft | 279 kts | 48° |
| 2026-05-03 23:34 | 42.05687 | -70.69348 | 9196 ft | 278 kts | 48° |
| 2026-05-03 23:35 | 42.06973 | -70.67419 | 8930 ft | 277 kts | 48° |
| 2026-05-03 23:35 | 42.08255 | -70.65496 | 8668 ft | 276 kts | 48° |
| 2026-05-03 23:35 | 42.09553 | -70.63606 | 8405 ft | 274 kts | 43° |
| 2026-05-03 23:35 | 42.11095 | -70.62108 | 8143 ft | 273 kts | 27° |
| 2026-05-03 23:36 | 42.12861 | -70.61199 | 7850 ft | 272 kts | 13° |
| 2026-05-03 23:36 | 42.14721 | -70.60773 | 7556 ft | 271 kts | 9° |
| 2026-05-03 23:36 | 42.16577 | -70.60378 | 7260 ft | 270 kts | 9° |
| 2026-05-03 23:36 | 42.18421 | -70.59988 | 6972 ft | 268 kts | 9° |
| 2026-05-03 23:37 | 42.20267 | -70.59597 | 6680 ft | 267 kts | 9° |
| 2026-05-03 23:37 | 42.22098 | -70.59212 | 6393 ft | 266 kts | 9° |
| 2026-05-03 23:37 | 42.23902 | -70.58832 | 6105 ft | 265 kts | 9° |
| 2026-05-03 23:37 | 42.25719 | -70.58446 | 5824 ft | 264 kts | 9° |
| 2026-05-03 23:38 | 42.27524 | -70.58064 | 5600 ft | 259 kts | 8° |
| 2026-05-03 23:38 | 42.29278 | -70.57699 | 5488 ft | 250 kts | 8° |
| 2026-05-03 23:38 | 42.30966 | -70.57342 | 5383 ft | 241 kts | 9° |
| 2026-05-03 23:38 | 42.32587 | -70.56985 | 5281 ft | 231 kts | 9° |
| 2026-05-03 23:39 | 42.34141 | -70.56632 | 5184 ft | 223 kts | 9° |
| 2026-05-03 23:39 | 42.35664 | -70.56280 | 5106 ft | 221 kts | 9° |
| 2026-05-03 23:39 | 42.37181 | -70.55940 | 5051 ft | 221 kts | 6° |
| 2026-05-03 23:39 | 42.38689 | -70.56172 | 5008 ft | 220 kts | 338° |
| 2026-05-03 23:40 | 42.39926 | -70.57345 | 4956 ft | 220 kts | 309° |
| 2026-05-03 23:40 | 42.40591 | -70.59191 | 4873 ft | 220 kts | 282° |
| 2026-05-03 23:40 | 42.40834 | -70.61300 | 4307 ft | 233 kts | 277° |
| 2026-05-03 23:40 | 42.41031 | -70.63454 | 4154 ft | 227 kts | 277° |
| 2026-05-03 23:41 | 42.41215 | -70.65571 | 4154 ft | 226 kts | 276° |
| 2026-05-03 23:41 | 42.41364 | -70.67628 | 4148 ft | 213 kts | 268° |
| 2026-05-03 23:41 | 42.41149 | -70.69553 | 4147 ft | 200 kts | 257° |
| 2026-05-03 23:41 | 42.40838 | -70.71339 | 4046 ft | 191 kts | 256° |
| 2026-05-03 23:42 | 42.40532 | -70.73071 | 3801 ft | 187 kts | 256° |
| 2026-05-03 23:42 | 42.40234 | -70.74777 | 3555 ft | 185 kts | 257° |
| 2026-05-03 23:42 | 42.39942 | -70.76446 | 3318 ft | 184 kts | 257° |
| 2026-05-03 23:42 | 42.39648 | -70.78130 | 3080 ft | 184 kts | 257° |
| 2026-05-03 23:43 | 42.39355 | -70.79806 | 2833 ft | 183 kts | 257° |
| 2026-05-03 23:43 | 42.39064 | -70.81470 | 2591 ft | 180 kts | 257° |
| 2026-05-03 23:43 | 42.38781 | -70.83085 | 2354 ft | 172 kts | 256° |
| 2026-05-03 23:43 | 42.38518 | -70.84582 | 2154 ft | 153 kts | 256° |
| 2026-05-03 23:44 | 42.38282 | -70.85928 | 1944 ft | 141 kts | 256° |
| 2026-05-03 23:44 | 42.38055 | -70.87219 | 1764 ft | 144 kts | 256° |
| 2026-05-03 23:44 | 42.37819 | -70.88556 | 1570 ft | 148 kts | 256° |
| 2026-05-03 23:44 | 42.37580 | -70.89913 | 1371 ft | 149 kts | 256° |
| 2026-05-03 23:45 | 42.37341 | -70.91274 | 1168 ft | 149 kts | 256° |
| 2026-05-03 23:45 | 42.37100 | -70.92639 | 973 ft | 149 kts | 256° |
| 2026-05-03 23:45 | 42.36860 | -70.94003 | 775 ft | 149 kts | 256° |
| 2026-05-03 23:45 | 42.36619 | -70.95368 | 576 ft | 149 kts | 256° |
| 2026-05-03 23:46 | 42.36378 | -70.96734 | 378 ft | 149 kts | 256° |
| 2026-05-03 23:46 | 42.36137 | -70.98097 | 180 ft | 149 kts | 256° |
| 2026-05-03 23:46 | 42.35902 | -70.99433 | 27 ft | 133 kts | 257° |
| 2026-05-03 23:46 | 42.35734 | -71.00392 | 25 ft | 75 kts | 256° |
| 2026-05-03 23:47 | 42.35637 | -71.00944 | 25 ft | 43 kts | 256° |
| 2026-05-03 23:47 | 42.35690 | -71.01216 | 27 ft | 15 kts | 308° |
| 2026-05-03 23:47 | 42.35716 | -71.01257 | 29 ft | 1 kts | 308° |
| 2026-05-03 23:47 | 42.35718 | -71.01261 | 29 ft | 0 kts | 308° |
| 2026-05-03 23:48 | 42.35724 | -71.01272 | 28 ft | 3 kts | 307° |
| 2026-05-03 23:48 | 42.35743 | -71.01315 | 26 ft | 7 kts | 291° |
| 2026-05-03 23:49 | 42.35765 | -71.01397 | 25 ft | 11 kts | 289° |
| 2026-05-03 23:49 | 42.35793 | -71.01518 | 29 ft | 15 kts | 286° |
| 2026-05-03 23:49 | 42.35818 | -71.01630 | 25 ft | 8 kts | 292° |
| 2026-05-03 23:49 | 42.35830 | -71.01655 | 29 ft | 2 kts | 309° |
| 2026-05-03 23:50 | 42.35849 | -71.01665 | 25 ft | 4 kts | 353° |
| 2026-05-03 23:50 | 42.35873 | -71.01656 | 28 ft | 7 kts | 16° |
| 2026-05-03 23:50 | 42.35905 | -71.01722 | 25 ft | 9 kts | 283° |
| 2026-05-03 23:50 | 42.35947 | -71.01743 | 28 ft | 6 kts | 360° |
| 2026-05-03 23:51 | 42.35970 | -71.01746 | 28 ft | 1 kts | 353° |
| 2026-05-03 23:51 | 42.35978 | -71.01747 | 29 ft | 0 kts | 353° |